sensor_id;sensor_type;location;lat;lon;timestamp;temperature;humidity
2497;DHT22;1259;48.306;14.374;2022-11-24T00:02:14;2.70;99.90
2497;DHT22;1259;48.306;14.374;2022-11-24T00:04:41;2.70;99.90
2497;DHT22;1259;48.306;14.374;2022-11-24T00:07:08;2.70;99.90
2497;DHT22;1259;48.306;14.374;2022-11-24T00:09:35;2.80;99.90
2497;DHT22;1259;48.306;14.374;2022-11-24T00:12:02;2.80;99.90
2497;DHT22;1259;48.306;14.374;2022-11-24T00:14:29;2.90;99.90
2497;DHT22;1259;48.306;14.374;2022-11-24T00:16:56;2.90;99.90
2497;DHT22;1259;48.306;14.374;2022-11-24T00:19:24;3.00;99.90
2497;DHT22;1259;48.306;14.374;2022-11-24T00:21:51;3.00;99.90
2497;DHT22;1259;48.306;14.374;2022-11-24T00:24:18;3.00;99.90
2497;DHT22;1259;48.306;14.374;2022-11-24T00:26:45;2.90;99.90
2497;DHT22;1259;48.306;14.374;2022-11-24T00:29:12;3.00;99.90
2497;DHT22;1259;48.306;14.374;2022-11-24T00:31:40;2.90;99.90
2497;DHT22;1259;48.306;14.374;2022-11-24T00:34:10;2.90;99.90
2497;DHT22;1259;48.306;14.374;2022-11-24T00:36:39;2.80;99.90
2497;DHT22;1259;48.306;14.374;2022-11-24T00:39:08;2.80;99.90
2497;DHT22;1259;48.306;14.374;2022-11-24T00:41:36;2.80;99.90
2497;DHT22;1259;48.306;14.374;2022-11-24T00:44:04;2.70;99.90
2497;DHT22;1259;48.306;14.374;2022-11-24T00:46:31;2.80;99.90
2497;DHT22;1259;48.306;14.374;2022-11-24T00:48:58;2.80;99.90
2497;DHT22;1259;48.306;14.374;2022-11-24T00:51:26;2.80;99.90
2497;DHT22;1259;48.306;14.374;2022-11-24T00:53:56;2.80;99.90
2497;DHT22;1259;48.306;14.374;2022-11-24T00:56:23;2.70;99.90
2497;DHT22;1259;48.306;14.374;2022-11-24T00:58:50;2.60;99.90
2497;DHT22;1259;48.306;14.374;2022-11-24T01:01:20;2.70;99.90
2497;DHT22;1259;48.306;14.374;2022-11-24T01:03:47;2.70;99.90
2497;DHT22;1259;48.306;14.374;2022-11-24T01:06:16;2.80;99.90
2497;DHT22;1259;48.306;14.374;2022-11-24T01:08:44;2.80;99.90
2497;DHT22;1259;48.306;14.374;2022-11-24T01:11:14;2.70;99.90
2497;DHT22;1259;48.306;14.374;2022-11-24T01:13:43;2.70;99.90
2497;DHT22;1259;48.306;14.374;2022-11-24T01:16:14;2.80;99.90
2497;DHT22;1259;48.306;14.374;2022-11-24T01:18:42;2.80;99.90
2497;DHT22;1259;48.306;14.374;2022-11-24T01:21:09;2.80;99.90
2497;DHT22;1259;48.306;14.374;2022-11-24T01:23:36;2.80;99.90
2497;DHT22;1259;48.306;14.374;2022-11-24T01:26:04;2.70;99.90
2497;DHT22;1259;48.306;14.374;2022-11-24T01:28:33;2.80;99.90
2497;DHT22;1259;48.306;14.374;2022-11-24T01:31:02;2.80;99.90
2497;DHT22;1259;48.306;14.374;2022-11-24T01:33:29;2.70;99.90
2497;DHT22;1259;48.306;14.374;2022-11-24T01:35:57;2.80;99.90
2497;DHT22;1259;48.306;14.374;2022-11-24T01:38:24;2.80;99.90
2497;DHT22;1259;48.306;14.374;2022-11-24T01:40:59;2.80;99.90
2497;DHT22;1259;48.306;14.374;2022-11-24T01:43:26;2.80;99.90
2497;DHT22;1259;48.306;14.374;2022-11-24T01:45:55;2.80;99.90
2497;DHT22;1259;48.306;14.374;2022-11-24T01:48:28;2.80;99.90
2497;DHT22;1259;48.306;14.374;2022-11-24T01:51:05;2.70;99.90
2497;DHT22;1259;48.306;14.374;2022-11-24T01:53:33;2.70;99.90
2497;DHT22;1259;48.306;14.374;2022-11-24T01:56:00;2.70;99.90
2497;DHT22;1259;48.306;14.374;2022-11-24T01:58:29;2.70;99.90
2497;DHT22;1259;48.306;14.374;2022-11-24T02:00:59;2.70;99.90
2497;DHT22;1259;48.306;14.374;2022-11-24T02:03:31;2.80;99.90
2497;DHT22;1259;48.306;14.374;2022-11-24T02:06:02;2.60;99.90
2497;DHT22;1259;48.306;14.374;2022-11-24T02:08:35;2.60;99.90
2497;DHT22;1259;48.306;14.374;2022-11-24T02:11:05;2.60;99.90
2497;DHT22;1259;48.306;14.374;2022-11-24T02:13:33;2.70;99.90
2497;DHT22;1259;48.306;14.374;2022-11-24T02:16:04;2.70;99.90
2497;DHT22;1259;48.306;14.374;2022-11-24T02:18:32;2.70;99.90
2497;DHT22;1259;48.306;14.374;2022-11-24T02:20:59;2.70;99.90
2497;DHT22;1259;48.306;14.374;2022-11-24T02:23:30;2.70;99.90
2497;DHT22;1259;48.306;14.374;2022-11-24T02:26:09;2.70;99.90
2497;DHT22;1259;48.306;14.374;2022-11-24T02:28:39;2.70;99.90
2497;DHT22;1259;48.306;14.374;2022-11-24T02:31:06;2.70;99.90
2497;DHT22;1259;48.306;14.374;2022-11-24T02:33:35;2.70;99.90
2497;DHT22;1259;48.306;14.374;2022-11-24T02:36:03;2.60;99.90
2497;DHT22;1259;48.306;14.374;2022-11-24T02:38:32;2.60;99.90
2497;DHT22;1259;48.306;14.374;2022-11-24T02:41:03;2.70;99.90
2497;DHT22;1259;48.306;14.374;2022-11-24T02:43:34;2.60;99.90
2497;DHT22;1259;48.306;14.374;2022-11-24T02:46:04;2.70;99.90
2497;DHT22;1259;48.306;14.374;2022-11-24T02:48:31;2.70;99.90
2497;DHT22;1259;48.306;14.374;2022-11-24T02:50:58;2.70;99.90
2497;DHT22;1259;48.306;14.374;2022-11-24T02:53:25;2.70;99.90
2497;DHT22;1259;48.306;14.374;2022-11-24T02:55:52;2.70;99.90
2497;DHT22;1259;48.306;14.374;2022-11-24T02:58:19;2.60;99.90
2497;DHT22;1259;48.306;14.374;2022-11-24T03:00:46;2.60;99.90
2497;DHT22;1259;48.306;14.374;2022-11-24T03:03:15;2.60;99.90
2497;DHT22;1259;48.306;14.374;2022-11-24T03:05:42;2.60;99.90
2497;DHT22;1259;48.306;14.374;2022-11-24T03:08:09;2.70;99.90
2497;DHT22;1259;48.306;14.374;2022-11-24T03:10:37;2.70;99.90
2497;DHT22;1259;48.306;14.374;2022-11-24T03:13:04;2.70;99.90
2497;DHT22;1259;48.306;14.374;2022-11-24T03:15:31;2.70;99.90
2497;DHT22;1259;48.306;14.374;2022-11-24T03:17:58;2.60;99.90
2497;DHT22;1259;48.306;14.374;2022-11-24T03:20:27;2.60;99.90
2497;DHT22;1259;48.306;14.374;2022-11-24T03:22:54;2.60;99.90
2497;DHT22;1259;48.306;14.374;2022-11-24T03:25:22;2.60;99.90
2497;DHT22;1259;48.306;14.374;2022-11-24T03:27:49;2.60;99.90
2497;DHT22;1259;48.306;14.374;2022-11-24T03:30:16;2.60;99.90
2497;DHT22;1259;48.306;14.374;2022-11-24T03:32:43;2.70;99.90
2497;DHT22;1259;48.306;14.374;2022-11-24T03:35:10;2.70;99.90
2497;DHT22;1259;48.306;14.374;2022-11-24T03:37:38;2.70;99.90
2497;DHT22;1259;48.306;14.374;2022-11-24T03:40:06;2.70;99.90
2497;DHT22;1259;48.306;14.374;2022-11-24T03:42:33;2.70;99.90
2497;DHT22;1259;48.306;14.374;2022-11-24T03:45:00;2.70;99.90
2497;DHT22;1259;48.306;14.374;2022-11-24T03:47:27;2.70;99.90
2497;DHT22;1259;48.306;14.374;2022-11-24T03:49:54;2.70;99.90
2497;DHT22;1259;48.306;14.374;2022-11-24T03:52:21;2.70;99.90
2497;DHT22;1259;48.306;14.374;2022-11-24T03:54:52;2.70;99.90
2497;DHT22;1259;48.306;14.374;2022-11-24T03:57:19;2.70;99.90
2497;DHT22;1259;48.306;14.374;2022-11-24T03:59:46;2.70;99.90
2497;DHT22;1259;48.306;14.374;2022-11-24T04:02:13;2.80;99.90
2497;DHT22;1259;48.306;14.374;2022-11-24T04:04:40;2.80;99.90
2497;DHT22;1259;48.306;14.374;2022-11-24T04:07:07;2.80;99.90
2497;DHT22;1259;48.306;14.374;2022-11-24T04:09:34;2.80;99.90
2497;DHT22;1259;48.306;14.374;2022-11-24T04:12:03;2.80;99.90
2497;DHT22;1259;48.306;14.374;2022-11-24T04:14:47;2.80;99.90
2497;DHT22;1259;48.306;14.374;2022-11-24T04:17:14;2.80;99.90
2497;DHT22;1259;48.306;14.374;2022-11-24T04:19:41;2.80;99.90
2497;DHT22;1259;48.306;14.374;2022-11-24T04:22:08;2.80;99.90
2497;DHT22;1259;48.306;14.374;2022-11-24T04:24:35;2.80;99.90
2497;DHT22;1259;48.306;14.374;2022-11-24T04:27:03;2.80;99.90
2497;DHT22;1259;48.306;14.374;2022-11-24T04:29:30;2.80;99.90
2497;DHT22;1259;48.306;14.374;2022-11-24T04:31:57;2.90;99.90
2497;DHT22;1259;48.306;14.374;2022-11-24T04:34:24;2.90;99.90
2497;DHT22;1259;48.306;14.374;2022-11-24T04:36:51;2.90;99.90
2497;DHT22;1259;48.306;14.374;2022-11-24T04:39:17;2.90;99.90
2497;DHT22;1259;48.306;14.374;2022-11-24T04:41:46;2.90;99.90
2497;DHT22;1259;48.306;14.374;2022-11-24T04:44:14;2.90;99.90
2497;DHT22;1259;48.306;14.374;2022-11-24T04:46:41;2.90;99.90
2497;DHT22;1259;48.306;14.374;2022-11-24T04:49:08;2.90;99.90
2497;DHT22;1259;48.306;14.374;2022-11-24T04:51:36;3.00;99.90
2497;DHT22;1259;48.306;14.374;2022-11-24T04:54:03;3.00;99.90
2497;DHT22;1259;48.306;14.374;2022-11-24T04:56:30;3.00;99.90
2497;DHT22;1259;48.306;14.374;2022-11-24T04:58:57;3.00;99.90
2497;DHT22;1259;48.306;14.374;2022-11-24T05:01:26;3.10;99.90
2497;DHT22;1259;48.306;14.374;2022-11-24T05:03:53;3.10;99.90
2497;DHT22;1259;48.306;14.374;2022-11-24T05:06:20;3.10;99.90
2497;DHT22;1259;48.306;14.374;2022-11-24T05:08:48;3.10;99.90
2497;DHT22;1259;48.306;14.374;2022-11-24T05:11:15;3.10;99.90
2497;DHT22;1259;48.306;14.374;2022-11-24T05:13:42;3.10;99.90
2497;DHT22;1259;48.306;14.374;2022-11-24T05:16:09;3.20;99.90
2497;DHT22;1259;48.306;14.374;2022-11-24T05:18:37;3.20;99.90
2497;DHT22;1259;48.306;14.374;2022-11-24T05:21:05;3.30;99.90
2497;DHT22;1259;48.306;14.374;2022-11-24T05:23:32;3.30;99.90
2497;DHT22;1259;48.306;14.374;2022-11-24T05:25:59;3.30;99.90
2497;DHT22;1259;48.306;14.374;2022-11-24T05:28:26;3.40;99.90
2497;DHT22;1259;48.306;14.374;2022-11-24T05:30:57;3.30;99.90
2497;DHT22;1259;48.306;14.374;2022-11-24T05:33:23;3.40;99.90
2497;DHT22;1259;48.306;14.374;2022-11-24T05:35:54;3.40;99.90
2497;DHT22;1259;48.306;14.374;2022-11-24T05:38:25;3.40;99.90
2497;DHT22;1259;48.306;14.374;2022-11-24T05:40:52;3.50;99.90
2497;DHT22;1259;48.306;14.374;2022-11-24T05:43:19;3.50;99.90
2497;DHT22;1259;48.306;14.374;2022-11-24T05:45:46;3.50;99.90
2497;DHT22;1259;48.306;14.374;2022-11-24T05:48:14;3.50;99.90
2497;DHT22;1259;48.306;14.374;2022-11-24T05:50:41;3.50;99.90
2497;DHT22;1259;48.306;14.374;2022-11-24T05:53:11;3.60;99.90
2497;DHT22;1259;48.306;14.374;2022-11-24T05:55:39;3.60;99.90
2497;DHT22;1259;48.306;14.374;2022-11-24T05:58:07;3.60;99.90
2497;DHT22;1259;48.306;14.374;2022-11-24T06:00:34;3.60;99.90
2497;DHT22;1259;48.306;14.374;2022-11-24T06:03:01;3.60;99.90
2497;DHT22;1259;48.306;14.374;2022-11-24T06:05:29;3.70;99.90
2497;DHT22;1259;48.306;14.374;2022-11-24T06:07:57;3.60;99.90
2497;DHT22;1259;48.306;14.374;2022-11-24T06:10:26;3.70;99.90
2497;DHT22;1259;48.306;14.374;2022-11-24T06:12:53;3.60;99.90
2497;DHT22;1259;48.306;14.374;2022-11-24T06:15:20;3.70;99.90
2497;DHT22;1259;48.306;14.374;2022-11-24T06:17:52;3.70;99.90
2497;DHT22;1259;48.306;14.374;2022-11-24T06:20:20;3.80;99.90
2497;DHT22;1259;48.306;14.374;2022-11-24T06:22:47;3.80;99.90
2497;DHT22;1259;48.306;14.374;2022-11-24T06:25:14;3.80;99.90
2497;DHT22;1259;48.306;14.374;2022-11-24T06:27:43;3.80;99.90
2497;DHT22;1259;48.306;14.374;2022-11-24T06:30:11;3.90;99.90
2497;DHT22;1259;48.306;14.374;2022-11-24T06:32:38;3.90;99.90
2497;DHT22;1259;48.306;14.374;2022-11-24T06:35:10;3.90;99.90
2497;DHT22;1259;48.306;14.374;2022-11-24T06:37:37;3.90;99.90
2497;DHT22;1259;48.306;14.374;2022-11-24T06:40:05;3.90;99.90
2497;DHT22;1259;48.306;14.374;2022-11-24T06:42:34;3.90;99.90
2497;DHT22;1259;48.306;14.374;2022-11-24T06:45:03;3.90;99.90
2497;DHT22;1259;48.306;14.374;2022-11-24T06:47:30;3.90;99.90
2497;DHT22;1259;48.306;14.374;2022-11-24T06:49:57;4.00;99.90
2497;DHT22;1259;48.306;14.374;2022-11-24T06:52:24;4.00;99.90
2497;DHT22;1259;48.306;14.374;2022-11-24T06:54:51;4.00;99.90
2497;DHT22;1259;48.306;14.374;2022-11-24T06:57:18;4.10;99.90
2497;DHT22;1259;48.306;14.374;2022-11-24T06:59:45;4.10;99.90
2497;DHT22;1259;48.306;14.374;2022-11-24T07:02:13;4.10;99.90
2497;DHT22;1259;48.306;14.374;2022-11-24T07:04:40;4.10;99.90
2497;DHT22;1259;48.306;14.374;2022-11-24T07:07:07;4.10;99.90
2497;DHT22;1259;48.306;14.374;2022-11-24T07:09:34;4.10;99.90
2497;DHT22;1259;48.306;14.374;2022-11-24T07:12:00;4.10;99.90
2497;DHT22;1259;48.306;14.374;2022-11-24T07:14:28;4.20;99.90
2497;DHT22;1259;48.306;14.374;2022-11-24T07:16:54;4.20;99.90
2497;DHT22;1259;48.306;14.374;2022-11-24T07:19:23;4.20;99.90
2497;DHT22;1259;48.306;14.374;2022-11-24T07:21:50;4.20;99.90
2497;DHT22;1259;48.306;14.374;2022-11-24T07:24:16;4.20;99.90
2497;DHT22;1259;48.306;14.374;2022-11-24T07:26:43;4.20;99.90
2497;DHT22;1259;48.306;14.374;2022-11-24T07:29:10;4.20;99.90
2497;DHT22;1259;48.306;14.374;2022-11-24T07:31:37;4.20;99.90
2497;DHT22;1259;48.306;14.374;2022-11-24T07:34:04;4.30;99.90
2497;DHT22;1259;48.306;14.374;2022-11-24T07:36:32;4.30;99.90
2497;DHT22;1259;48.306;14.374;2022-11-24T07:38:59;4.30;99.90
2497;DHT22;1259;48.306;14.374;2022-11-24T07:41:26;4.30;99.90
2497;DHT22;1259;48.306;14.374;2022-11-24T07:43:53;4.30;99.90
2497;DHT22;1259;48.306;14.374;2022-11-24T07:46:21;4.30;99.90
2497;DHT22;1259;48.306;14.374;2022-11-24T07:48:48;4.30;99.90
2497;DHT22;1259;48.306;14.374;2022-11-24T07:51:14;4.30;99.90
2497;DHT22;1259;48.306;14.374;2022-11-24T07:53:43;4.30;99.90
2497;DHT22;1259;48.306;14.374;2022-11-24T07:56:10;4.30;99.90
2497;DHT22;1259;48.306;14.374;2022-11-24T07:58:38;4.30;99.90
2497;DHT22;1259;48.306;14.374;2022-11-24T08:01:09;4.30;99.90
2497;DHT22;1259;48.306;14.374;2022-11-24T08:03:36;4.40;99.90
2497;DHT22;1259;48.306;14.374;2022-11-24T08:06:03;4.40;99.90
2497;DHT22;1259;48.306;14.374;2022-11-24T08:08:30;4.50;99.90
2497;DHT22;1259;48.306;14.374;2022-11-24T08:11:03;4.40;99.90
2497;DHT22;1259;48.306;14.374;2022-11-24T08:13:30;4.50;99.90
2497;DHT22;1259;48.306;14.374;2022-11-24T08:15:57;4.50;99.90
2497;DHT22;1259;48.306;14.374;2022-11-24T08:18:24;4.60;99.90
2497;DHT22;1259;48.306;14.374;2022-11-24T08:20:52;4.60;99.90
2497;DHT22;1259;48.306;14.374;2022-11-24T08:23:19;4.70;99.90
2497;DHT22;1259;48.306;14.374;2022-11-24T08:25:46;4.70;99.90
2497;DHT22;1259;48.306;14.374;2022-11-24T08:28:14;4.80;99.90
2497;DHT22;1259;48.306;14.374;2022-11-24T08:30:41;4.80;99.90
2497;DHT22;1259;48.306;14.374;2022-11-24T08:33:08;4.90;99.90
2497;DHT22;1259;48.306;14.374;2022-11-24T08:35:35;4.90;99.90
2497;DHT22;1259;48.306;14.374;2022-11-24T08:38:02;4.90;99.90
2497;DHT22;1259;48.306;14.374;2022-11-24T08:40:29;5.00;99.90
2497;DHT22;1259;48.306;14.374;2022-11-24T08:42:56;5.00;99.90
2497;DHT22;1259;48.306;14.374;2022-11-24T08:45:25;5.00;99.90
2497;DHT22;1259;48.306;14.374;2022-11-24T08:47:52;5.10;99.90
2497;DHT22;1259;48.306;14.374;2022-11-24T08:50:19;5.10;99.90
2497;DHT22;1259;48.306;14.374;2022-11-24T08:52:46;5.10;99.90
2497;DHT22;1259;48.306;14.374;2022-11-24T08:55:13;5.20;99.90
2497;DHT22;1259;48.306;14.374;2022-11-24T08:57:40;5.20;99.90
2497;DHT22;1259;48.306;14.374;2022-11-24T09:00:08;5.20;99.90
2497;DHT22;1259;48.306;14.374;2022-11-24T09:02:37;5.20;99.90
2497;DHT22;1259;48.306;14.374;2022-11-24T09:05:04;5.20;99.90
2497;DHT22;1259;48.306;14.374;2022-11-24T09:07:31;5.20;99.90
2497;DHT22;1259;48.306;14.374;2022-11-24T09:09:58;5.30;99.90
2497;DHT22;1259;48.306;14.374;2022-11-24T09:12:25;5.30;99.90
2497;DHT22;1259;48.306;14.374;2022-11-24T09:14:51;5.30;99.90
2497;DHT22;1259;48.306;14.374;2022-11-24T09:17:18;5.30;99.90
2497;DHT22;1259;48.306;14.374;2022-11-24T09:19:47;5.30;99.90
2497;DHT22;1259;48.306;14.374;2022-11-24T09:22:14;5.30;99.90
2497;DHT22;1259;48.306;14.374;2022-11-24T09:24:40;5.40;99.90
2497;DHT22;1259;48.306;14.374;2022-11-24T09:27:07;5.40;99.90
2497;DHT22;1259;48.306;14.374;2022-11-24T09:29:34;5.40;99.90
2497;DHT22;1259;48.306;14.374;2022-11-24T09:32:01;5.40;99.90
2497;DHT22;1259;48.306;14.374;2022-11-24T09:34:28;5.40;99.90
2497;DHT22;1259;48.306;14.374;2022-11-24T09:36:56;5.40;99.90
2497;DHT22;1259;48.306;14.374;2022-11-24T09:39:23;5.50;99.90
2497;DHT22;1259;48.306;14.374;2022-11-24T09:42:06;5.50;99.90
2497;DHT22;1259;48.306;14.374;2022-11-24T09:47:41;5.60;99.90
2497;DHT22;1259;48.306;14.374;2022-11-24T09:50:14;5.60;99.90
2497;DHT22;1259;48.306;14.374;2022-11-24T09:52:47;5.60;99.90
2497;DHT22;1259;48.306;14.374;2022-11-24T09:55:38;5.70;99.90
2497;DHT22;1259;48.306;14.374;2022-11-24T09:58:12;5.70;99.90
2497;DHT22;1259;48.306;14.374;2022-11-24T10:00:41;5.70;99.90
2497;DHT22;1259;48.306;14.374;2022-11-24T10:03:18;5.70;99.90
2497;DHT22;1259;48.306;14.374;2022-11-24T10:05:48;5.70;99.90
2497;DHT22;1259;48.306;14.374;2022-11-24T10:08:26;5.80;99.90
2497;DHT22;1259;48.306;14.374;2022-11-24T10:10:56;5.80;99.90
2497;DHT22;1259;48.306;14.374;2022-11-24T10:13:40;5.90;99.90
2497;DHT22;1259;48.306;14.374;2022-11-24T10:16:17;6.00;99.90
2497;DHT22;1259;48.306;14.374;2022-11-24T10:18:55;6.00;99.90
2497;DHT22;1259;48.306;14.374;2022-11-24T10:21:40;6.10;99.90
2497;DHT22;1259;48.306;14.374;2022-11-24T10:24:39;6.10;99.90
2497;DHT22;1259;48.306;14.374;2022-11-24T10:27:15;6.00;99.90
2497;DHT22;1259;48.306;14.374;2022-11-24T10:29:43;6.10;99.90
2497;DHT22;1259;48.306;14.374;2022-11-24T10:32:16;6.10;99.90
2497;DHT22;1259;48.306;14.374;2022-11-24T10:34:45;6.10;99.90
2497;DHT22;1259;48.306;14.374;2022-11-24T10:37:16;6.10;99.90
2497;DHT22;1259;48.306;14.374;2022-11-24T10:39:51;6.10;99.90
2497;DHT22;1259;48.306;14.374;2022-11-24T10:42:25;6.20;99.90
2497;DHT22;1259;48.306;14.374;2022-11-24T10:44:58;6.20;99.90
2497;DHT22;1259;48.306;14.374;2022-11-24T10:47:29;6.20;99.90
2497;DHT22;1259;48.306;14.374;2022-11-24T10:49:59;6.20;99.90
2497;DHT22;1259;48.306;14.374;2022-11-24T10:52:28;6.20;99.90
2497;DHT22;1259;48.306;14.374;2022-11-24T10:54:59;6.20;99.90
2497;DHT22;1259;48.306;14.374;2022-11-24T10:57:28;6.20;99.90
2497;DHT22;1259;48.306;14.374;2022-11-24T10:59:55;6.20;99.90
2497;DHT22;1259;48.306;14.374;2022-11-24T11:02:34;6.30;99.90
2497;DHT22;1259;48.306;14.374;2022-11-24T11:05:32;6.30;99.90
2497;DHT22;1259;48.306;14.374;2022-11-24T11:08:22;6.40;99.90
2497;DHT22;1259;48.306;14.374;2022-11-24T11:11:11;6.40;99.90
2497;DHT22;1259;48.306;14.374;2022-11-24T11:13:46;6.40;99.90
2497;DHT22;1259;48.306;14.374;2022-11-24T11:16:23;6.40;99.90
2497;DHT22;1259;48.306;14.374;2022-11-24T11:18:51;6.40;99.90
2497;DHT22;1259;48.306;14.374;2022-11-24T11:21:27;6.50;99.90
2497;DHT22;1259;48.306;14.374;2022-11-24T11:23:54;6.40;99.90
2497;DHT22;1259;48.306;14.374;2022-11-24T11:26:31;6.40;99.90
2497;DHT22;1259;48.306;14.374;2022-11-24T11:29:00;6.50;99.90
2497;DHT22;1259;48.306;14.374;2022-11-24T11:31:29;6.50;99.90
2497;DHT22;1259;48.306;14.374;2022-11-24T11:33:59;6.40;99.90
2497;DHT22;1259;48.306;14.374;2022-11-24T11:36:27;6.40;99.90
2497;DHT22;1259;48.306;14.374;2022-11-24T11:38:55;6.40;99.90
2497;DHT22;1259;48.306;14.374;2022-11-24T11:41:27;6.40;99.90
2497;DHT22;1259;48.306;14.374;2022-11-24T11:44:04;6.40;99.90
2497;DHT22;1259;48.306;14.374;2022-11-24T11:46:34;6.40;99.90
2497;DHT22;1259;48.306;14.374;2022-11-24T11:49:02;6.50;99.90
2497;DHT22;1259;48.306;14.374;2022-11-24T11:51:50;6.50;99.90
2497;DHT22;1259;48.306;14.374;2022-11-24T11:54:27;6.50;99.90
2497;DHT22;1259;48.306;14.374;2022-11-24T11:57:03;6.50;99.90
2497;DHT22;1259;48.306;14.374;2022-11-24T11:59:47;6.50;99.90
2497;DHT22;1259;48.306;14.374;2022-11-24T12:05:23;6.60;99.90
2497;DHT22;1259;48.306;14.374;2022-11-24T12:08:03;6.70;99.90
2497;DHT22;1259;48.306;14.374;2022-11-24T12:10:37;6.60;99.90
2497;DHT22;1259;48.306;14.374;2022-11-24T12:13:30;6.60;99.90
2497;DHT22;1259;48.306;14.374;2022-11-24T12:16:10;6.70;99.90
2497;DHT22;1259;48.306;14.374;2022-11-24T12:18:44;6.70;99.90
2497;DHT22;1259;48.306;14.374;2022-11-24T12:21:16;6.70;99.90
2497;DHT22;1259;48.306;14.374;2022-11-24T12:23:56;6.80;99.90
2497;DHT22;1259;48.306;14.374;2022-11-24T12:26:33;6.80;99.90
2497;DHT22;1259;48.306;14.374;2022-11-24T12:29:12;6.80;99.90
2497;DHT22;1259;48.306;14.374;2022-11-24T12:31:50;6.80;99.90
2497;DHT22;1259;48.306;14.374;2022-11-24T12:34:35;6.80;99.90
2497;DHT22;1259;48.306;14.374;2022-11-24T12:37:14;6.80;99.90
2497;DHT22;1259;48.306;14.374;2022-11-24T12:39:54;6.90;99.90
2497;DHT22;1259;48.306;14.374;2022-11-24T12:42:29;6.90;99.90
2497;DHT22;1259;48.306;14.374;2022-11-24T12:45:10;6.90;99.90
2497;DHT22;1259;48.306;14.374;2022-11-24T12:47:59;7.00;99.90
2497;DHT22;1259;48.306;14.374;2022-11-24T12:50:30;7.10;99.90
2497;DHT22;1259;48.306;14.374;2022-11-24T12:53:04;7.10;99.90
2497;DHT22;1259;48.306;14.374;2022-11-24T12:55:32;7.10;99.90
2497;DHT22;1259;48.306;14.374;2022-11-24T12:58:04;7.10;99.90
2497;DHT22;1259;48.306;14.374;2022-11-24T13:00:38;7.10;99.90
2497;DHT22;1259;48.306;14.374;2022-11-24T13:03:19;7.10;99.90
2497;DHT22;1259;48.306;14.374;2022-11-24T13:05:56;7.10;99.90
2497;DHT22;1259;48.306;14.374;2022-11-24T13:08:26;7.20;99.90
2497;DHT22;1259;48.306;14.374;2022-11-24T13:10:53;7.10;99.90
2497;DHT22;1259;48.306;14.374;2022-11-24T13:13:25;7.20;99.90
2497;DHT22;1259;48.306;14.374;2022-11-24T13:16:13;7.20;99.90
2497;DHT22;1259;48.306;14.374;2022-11-24T13:18:44;7.20;99.90
2497;DHT22;1259;48.306;14.374;2022-11-24T13:24:26;7.20;99.90
2497;DHT22;1259;48.306;14.374;2022-11-24T13:29:55;7.20;99.90
2497;DHT22;1259;48.306;14.374;2022-11-24T13:32:56;7.20;99.90
2497;DHT22;1259;48.306;14.374;2022-11-24T13:35:25;7.30;99.90
2497;DHT22;1259;48.306;14.374;2022-11-24T13:37:53;7.30;99.90
2497;DHT22;1259;48.306;14.374;2022-11-24T13:40:37;7.30;99.90
2497;DHT22;1259;48.306;14.374;2022-11-24T13:43:21;7.20;99.90
2497;DHT22;1259;48.306;14.374;2022-11-24T13:45:50;7.20;99.90
2497;DHT22;1259;48.306;14.374;2022-11-24T13:48:51;7.20;99.90
2497;DHT22;1259;48.306;14.374;2022-11-24T13:51:28;7.10;99.90
2497;DHT22;1259;48.306;14.374;2022-11-24T13:53:55;7.00;99.90
2497;DHT22;1259;48.306;14.374;2022-11-24T13:56:29;7.00;99.90
2497;DHT22;1259;48.306;14.374;2022-11-24T13:58:59;6.90;99.90
2497;DHT22;1259;48.306;14.374;2022-11-24T14:01:27;6.80;99.90
2497;DHT22;1259;48.306;14.374;2022-11-24T14:04:15;6.70;99.90
2497;DHT22;1259;48.306;14.374;2022-11-24T14:06:46;6.60;99.90
2497;DHT22;1259;48.306;14.374;2022-11-24T14:09:26;6.50;99.90
2497;DHT22;1259;48.306;14.374;2022-11-24T14:12:00;6.40;99.90
2497;DHT22;1259;48.306;14.374;2022-11-24T14:14:29;6.30;99.90
2497;DHT22;1259;48.306;14.374;2022-11-24T14:17:14;6.30;99.90
2497;DHT22;1259;48.306;14.374;2022-11-24T14:19:42;6.30;99.90
2497;DHT22;1259;48.306;14.374;2022-11-24T14:22:17;6.30;99.90
2497;DHT22;1259;48.306;14.374;2022-11-24T14:24:50;6.20;99.90
2497;DHT22;1259;48.306;14.374;2022-11-24T14:27:20;6.30;99.90
2497;DHT22;1259;48.306;14.374;2022-11-24T14:29:57;6.30;99.90
2497;DHT22;1259;48.306;14.374;2022-11-24T14:32:25;6.30;99.90
2497;DHT22;1259;48.306;14.374;2022-11-24T14:34:52;6.30;99.90
2497;DHT22;1259;48.306;14.374;2022-11-24T14:37:20;6.30;99.90
2497;DHT22;1259;48.306;14.374;2022-11-24T14:39:47;6.30;99.90
2497;DHT22;1259;48.306;14.374;2022-11-24T14:42:17;6.30;99.90
2497;DHT22;1259;48.306;14.374;2022-11-24T14:44:48;6.30;99.90
2497;DHT22;1259;48.306;14.374;2022-11-24T14:47:21;6.30;99.90
2497;DHT22;1259;48.306;14.374;2022-11-24T14:49:50;6.20;99.90
2497;DHT22;1259;48.306;14.374;2022-11-24T14:52:20;6.10;99.90
2497;DHT22;1259;48.306;14.374;2022-11-24T14:54:50;6.00;99.90
2497;DHT22;1259;48.306;14.374;2022-11-24T14:57:23;6.00;99.90
2497;DHT22;1259;48.306;14.374;2022-11-24T15:00:06;5.90;99.90
2497;DHT22;1259;48.306;14.374;2022-11-24T15:02:38;5.80;99.90
2497;DHT22;1259;48.306;14.374;2022-11-24T15:05:06;5.70;99.90
2497;DHT22;1259;48.306;14.374;2022-11-24T15:07:35;5.70;99.90
2497;DHT22;1259;48.306;14.374;2022-11-24T15:10:05;5.70;99.90
2497;DHT22;1259;48.306;14.374;2022-11-24T15:12:36;5.60;99.90
2497;DHT22;1259;48.306;14.374;2022-11-24T15:15:05;5.60;99.90
2497;DHT22;1259;48.306;14.374;2022-11-24T15:17:33;5.60;99.90
2497;DHT22;1259;48.306;14.374;2022-11-24T15:20:06;5.60;99.90
2497;DHT22;1259;48.306;14.374;2022-11-24T15:22:38;5.60;99.90
2497;DHT22;1259;48.306;14.374;2022-11-24T15:25:27;5.50;99.90
2497;DHT22;1259;48.306;14.374;2022-11-24T15:27:56;5.60;99.90
2497;DHT22;1259;48.306;14.374;2022-11-24T15:30:23;5.50;99.90
2497;DHT22;1259;48.306;14.374;2022-11-24T15:32:51;5.50;99.90
2497;DHT22;1259;48.306;14.374;2022-11-24T15:35:18;5.50;99.90
2497;DHT22;1259;48.306;14.374;2022-11-24T15:37:47;5.50;99.90
2497;DHT22;1259;48.306;14.374;2022-11-24T15:40:15;5.60;99.90
2497;DHT22;1259;48.306;14.374;2022-11-24T15:42:44;5.60;99.90
2497;DHT22;1259;48.306;14.374;2022-11-24T15:45:11;5.60;99.90
2497;DHT22;1259;48.306;14.374;2022-11-24T15:47:39;5.60;99.90
2497;DHT22;1259;48.306;14.374;2022-11-24T15:50:07;5.60;99.90
2497;DHT22;1259;48.306;14.374;2022-11-24T15:52:34;5.60;99.90
2497;DHT22;1259;48.306;14.374;2022-11-24T15:55:03;5.60;99.90
2497;DHT22;1259;48.306;14.374;2022-11-24T15:57:31;5.60;99.90
2497;DHT22;1259;48.306;14.374;2022-11-24T15:59:59;5.60;99.90
2497;DHT22;1259;48.306;14.374;2022-11-24T16:02:26;5.60;99.90
2497;DHT22;1259;48.306;14.374;2022-11-24T16:04:53;5.60;99.90
2497;DHT22;1259;48.306;14.374;2022-11-24T16:07:20;5.60;99.90
2497;DHT22;1259;48.306;14.374;2022-11-24T16:09:47;5.50;99.90
2497;DHT22;1259;48.306;14.374;2022-11-24T16:12:15;5.60;99.90
2497;DHT22;1259;48.306;14.374;2022-11-24T16:14:42;5.60;99.90
2497;DHT22;1259;48.306;14.374;2022-11-24T16:17:09;5.60;99.90
2497;DHT22;1259;48.306;14.374;2022-11-24T16:19:36;5.50;99.90
2497;DHT22;1259;48.306;14.374;2022-11-24T16:22:03;5.60;99.90
2497;DHT22;1259;48.306;14.374;2022-11-24T16:24:30;5.50;99.90
2497;DHT22;1259;48.306;14.374;2022-11-24T16:26:57;5.50;99.90
2497;DHT22;1259;48.306;14.374;2022-11-24T16:29:25;5.50;99.90
2497;DHT22;1259;48.306;14.374;2022-11-24T16:31:52;5.50;99.90
2497;DHT22;1259;48.306;14.374;2022-11-24T16:34:19;5.50;99.90